sensor_id;sensor_type;location;lat;lon;timestamp;P1;durP1;ratioP1;P2;durP2;ratioP2
8871;SDS011;4472;52.092;9.820;2022-12-07T00:01:52;40.80;;;21.80;;
8871;SDS011;4472;52.092;9.820;2022-12-07T00:04:39;42.30;;;22.10;;
8871;SDS011;4472;52.092;9.820;2022-12-07T00:07:27;38.37;;;20.37;;
8871;SDS011;4472;52.092;9.820;2022-12-07T00:10:14;36.73;;;20.30;;
8871;SDS011;4472;52.092;9.820;2022-12-07T00:13:03;34.93;;;19.50;;
8871;SDS011;4472;52.092;9.820;2022-12-07T00:15:50;36.13;;;19.70;;
8871;SDS011;4472;52.092;9.820;2022-12-07T00:18:38;31.97;;;18.13;;
8871;SDS011;4472;52.092;9.820;2022-12-07T00:21:27;35.97;;;19.00;;
8871;SDS011;4472;52.092;9.820;2022-12-07T00:24:16;30.53;;;17.60;;
8871;SDS011;4472;52.092;9.820;2022-12-07T00:27:03;28.90;;;17.77;;
8871;SDS011;4472;52.092;9.820;2022-12-07T00:29:52;29.93;;;17.53;;
8871;SDS011;4472;52.092;9.820;2022-12-07T00:32:39;29.63;;;17.03;;
8871;SDS011;4472;52.092;9.820;2022-12-07T00:35:26;28.87;;;16.77;;
8871;SDS011;4472;52.092;9.820;2022-12-07T00:38:13;26.33;;;15.70;;
8871;SDS011;4472;52.092;9.820;2022-12-07T00:41:01;27.03;;;16.00;;
8871;SDS011;4472;52.092;9.820;2022-12-07T00:43:50;23.13;;;15.23;;
8871;SDS011;4472;52.092;9.820;2022-12-07T00:46:40;26.17;;;16.00;;
8871;SDS011;4472;52.092;9.820;2022-12-07T00:49:27;23.97;;;15.43;;
8871;SDS011;4472;52.092;9.820;2022-12-07T00:52:14;26.83;;;17.37;;
8871;SDS011;4472;52.092;9.820;2022-12-07T00:55:02;27.53;;;15.80;;
8871;SDS011;4472;52.092;9.820;2022-12-07T00:57:49;24.87;;;15.67;;
8871;SDS011;4472;52.092;9.820;2022-12-07T01:00:38;24.77;;;15.67;;
8871;SDS011;4472;52.092;9.820;2022-12-07T01:03:27;23.63;;;14.97;;
8871;SDS011;4472;52.092;9.820;2022-12-07T01:06:15;24.47;;;14.53;;
8871;SDS011;4472;52.092;9.820;2022-12-07T01:09:03;23.60;;;15.37;;
8871;SDS011;4472;52.092;9.820;2022-12-07T01:11:51;23.73;;;14.93;;
8871;SDS011;4472;52.092;9.820;2022-12-07T01:14:38;20.87;;;14.53;;
8871;SDS011;4472;52.092;9.820;2022-12-07T01:17:26;20.90;;;14.20;;
8871;SDS011;4472;52.092;9.820;2022-12-07T01:20:17;23.13;;;14.97;;
8871;SDS011;4472;52.092;9.820;2022-12-07T01:23:04;21.57;;;14.03;;
8871;SDS011;4472;52.092;9.820;2022-12-07T01:25:53;20.83;;;14.20;;
8871;SDS011;4472;52.092;9.820;2022-12-07T01:28:41;22.10;;;14.90;;
8871;SDS011;4472;52.092;9.820;2022-12-07T01:31:29;21.23;;;14.90;;
8871;SDS011;4472;52.092;9.820;2022-12-07T01:34:16;24.03;;;15.77;;
8871;SDS011;4472;52.092;9.820;2022-12-07T01:37:05;21.10;;;14.83;;
8871;SDS011;4472;52.092;9.820;2022-12-07T01:39:52;23.10;;;15.00;;
8871;SDS011;4472;52.092;9.820;2022-12-07T01:42:40;21.90;;;15.40;;
8871;SDS011;4472;52.092;9.820;2022-12-07T01:45:38;22.07;;;15.37;;
8871;SDS011;4472;52.092;9.820;2022-12-07T01:48:27;22.93;;;15.23;;
8871;SDS011;4472;52.092;9.820;2022-12-07T01:51:19;23.33;;;16.20;;
8871;SDS011;4472;52.092;9.820;2022-12-07T01:54:08;25.20;;;16.50;;
8871;SDS011;4472;52.092;9.820;2022-12-07T01:56:57;25.63;;;16.50;;
8871;SDS011;4472;52.092;9.820;2022-12-07T01:59:45;21.77;;;15.90;;
8871;SDS011;4472;52.092;9.820;2022-12-07T02:02:38;22.63;;;15.63;;
8871;SDS011;4472;52.092;9.820;2022-12-07T02:05:30;27.07;;;16.90;;
8871;SDS011;4472;52.092;9.820;2022-12-07T02:08:18;25.17;;;16.53;;
8871;SDS011;4472;52.092;9.820;2022-12-07T02:11:08;23.83;;;16.00;;
8871;SDS011;4472;52.092;9.820;2022-12-07T02:13:56;31.40;;;18.37;;
8871;SDS011;4472;52.092;9.820;2022-12-07T02:16:47;32.50;;;19.40;;
8871;SDS011;4472;52.092;9.820;2022-12-07T02:26:41;30.53;;;18.47;;
8871;SDS011;4472;52.092;9.820;2022-12-07T02:30:02;31.37;;;20.03;;
8871;SDS011;4472;52.092;9.820;2022-12-07T02:32:56;34.37;;;19.37;;
8871;SDS011;4472;52.092;9.820;2022-12-07T02:35:51;34.60;;;20.33;;
8871;SDS011;4472;52.092;9.820;2022-12-07T02:38:43;31.50;;;19.10;;
8871;SDS011;4472;52.092;9.820;2022-12-07T02:41:39;39.07;;;20.83;;
8871;SDS011;4472;52.092;9.820;2022-12-07T02:44:29;38.43;;;21.00;;
8871;SDS011;4472;52.092;9.820;2022-12-07T02:47:22;35.57;;;20.57;;
8871;SDS011;4472;52.092;9.820;2022-12-07T02:50:12;36.33;;;20.87;;
8871;SDS011;4472;52.092;9.820;2022-12-07T02:53:00;35.67;;;20.70;;
8871;SDS011;4472;52.092;9.820;2022-12-07T02:55:47;35.83;;;21.27;;
8871;SDS011;4472;52.092;9.820;2022-12-07T02:58:38;39.03;;;20.73;;
8871;SDS011;4472;52.092;9.820;2022-12-07T03:01:37;37.93;;;20.97;;
8871;SDS011;4472;52.092;9.820;2022-12-07T03:04:39;37.50;;;20.07;;
8871;SDS011;4472;52.092;9.820;2022-12-07T03:07:33;36.67;;;19.73;;
8871;SDS011;4472;52.092;9.820;2022-12-07T03:10:33;41.10;;;19.90;;
8871;SDS011;4472;52.092;9.820;2022-12-07T03:13:28;35.80;;;19.17;;
8871;SDS011;4472;52.092;9.820;2022-12-07T03:16:20;35.60;;;19.13;;
8871;SDS011;4472;52.092;9.820;2022-12-07T03:19:12;37.20;;;19.13;;
8871;SDS011;4472;52.092;9.820;2022-12-07T03:22:05;32.80;;;17.20;;
8871;SDS011;4472;52.092;9.820;2022-12-07T03:24:55;30.47;;;16.40;;
8871;SDS011;4472;52.092;9.820;2022-12-07T03:27:49;27.37;;;15.87;;
8871;SDS011;4472;52.092;9.820;2022-12-07T03:30:42;29.63;;;15.67;;
8871;SDS011;4472;52.092;9.820;2022-12-07T03:33:34;29.50;;;15.60;;
8871;SDS011;4472;52.092;9.820;2022-12-07T03:36:27;24.33;;;14.57;;
8871;SDS011;4472;52.092;9.820;2022-12-07T03:39:23;27.33;;;14.93;;
8871;SDS011;4472;52.092;9.820;2022-12-07T03:42:16;32.40;;;14.57;;
8871;SDS011;4472;52.092;9.820;2022-12-07T03:45:04;25.13;;;14.87;;
8871;SDS011;4472;52.092;9.820;2022-12-07T03:47:54;27.37;;;14.90;;
8871;SDS011;4472;52.092;9.820;2022-12-07T03:50:50;29.83;;;14.37;;
8871;SDS011;4472;52.092;9.820;2022-12-07T03:53:43;21.60;;;12.97;;
8871;SDS011;4472;52.092;9.820;2022-12-07T03:56:36;22.47;;;12.60;;
8871;SDS011;4472;52.092;9.820;2022-12-07T03:59:26;23.87;;;12.17;;
8871;SDS011;4472;52.092;9.820;2022-12-07T04:02:15;21.73;;;12.03;;
8871;SDS011;4472;52.092;9.820;2022-12-07T04:05:03;23.80;;;12.33;;
8871;SDS011;4472;52.092;9.820;2022-12-07T04:07:50;22.77;;;11.80;;
8871;SDS011;4472;52.092;9.820;2022-12-07T04:10:38;22.13;;;11.97;;
8871;SDS011;4472;52.092;9.820;2022-12-07T04:13:26;16.50;;;11.13;;
8871;SDS011;4472;52.092;9.820;2022-12-07T04:16:14;17.30;;;11.43;;
8871;SDS011;4472;52.092;9.820;2022-12-07T04:19:01;32.13;;;12.83;;
8871;SDS011;4472;52.092;9.820;2022-12-07T04:21:48;24.17;;;10.80;;
8871;SDS011;4472;52.092;9.820;2022-12-07T04:24:35;19.33;;;11.07;;
8871;SDS011;4472;52.092;9.820;2022-12-07T04:27:23;19.43;;;11.33;;
8871;SDS011;4472;52.092;9.820;2022-12-07T04:30:14;19.37;;;11.27;;
8871;SDS011;4472;52.092;9.820;2022-12-07T04:33:02;19.93;;;10.33;;
8871;SDS011;4472;52.092;9.820;2022-12-07T04:35:49;19.73;;;10.67;;
8871;SDS011;4472;52.092;9.820;2022-12-07T04:38:36;17.57;;;10.53;;
8871;SDS011;4472;52.092;9.820;2022-12-07T04:41:24;18.60;;;10.17;;
8871;SDS011;4472;52.092;9.820;2022-12-07T04:44:13;17.43;;;10.57;;
8871;SDS011;4472;52.092;9.820;2022-12-07T04:47:03;22.60;;;10.33;;
8871;SDS011;4472;52.092;9.820;2022-12-07T04:49:50;19.73;;;10.80;;
8871;SDS011;4472;52.092;9.820;2022-12-07T04:52:37;15.97;;;9.83;;
8871;SDS011;4472;52.092;9.820;2022-12-07T04:55:24;23.23;;;9.80;;
8871;SDS011;4472;52.092;9.820;2022-12-07T04:58:12;21.67;;;10.33;;
8871;SDS011;4472;52.092;9.820;2022-12-07T05:00:59;18.37;;;10.37;;
8871;SDS011;4472;52.092;9.820;2022-12-07T05:03:48;16.77;;;10.27;;
8871;SDS011;4472;52.092;9.820;2022-12-07T05:06:35;23.07;;;10.10;;
8871;SDS011;4472;52.092;9.820;2022-12-07T05:09:23;20.63;;;10.13;;
8871;SDS011;4472;52.092;9.820;2022-12-07T05:12:10;18.00;;;9.47;;
8871;SDS011;4472;52.092;9.820;2022-12-07T05:14:57;21.10;;;9.47;;
8871;SDS011;4472;52.092;9.820;2022-12-07T05:17:45;18.53;;;9.80;;
8871;SDS011;4472;52.092;9.820;2022-12-07T05:20:33;21.60;;;10.03;;
8871;SDS011;4472;52.092;9.820;2022-12-07T05:23:21;15.93;;;9.07;;
8871;SDS011;4472;52.092;9.820;2022-12-07T05:26:08;18.57;;;9.27;;
8871;SDS011;4472;52.092;9.820;2022-12-07T05:28:55;22.00;;;9.60;;
8871;SDS011;4472;52.092;9.820;2022-12-07T05:31:43;23.27;;;9.47;;
8871;SDS011;4472;52.092;9.820;2022-12-07T05:34:31;21.30;;;9.30;;
8871;SDS011;4472;52.092;9.820;2022-12-07T05:37:19;22.23;;;9.53;;
8871;SDS011;4472;52.092;9.820;2022-12-07T05:40:07;16.97;;;8.90;;
8871;SDS011;4472;52.092;9.820;2022-12-07T05:42:56;18.40;;;8.30;;
8871;SDS011;4472;52.092;9.820;2022-12-07T05:45:43;16.90;;;8.90;;
8871;SDS011;4472;52.092;9.820;2022-12-07T05:48:30;18.97;;;9.27;;
8871;SDS011;4472;52.092;9.820;2022-12-07T05:51:17;22.63;;;9.50;;
8871;SDS011;4472;52.092;9.820;2022-12-07T05:54:06;16.07;;;8.33;;
8871;SDS011;4472;52.092;9.820;2022-12-07T05:56:53;16.97;;;8.53;;
8871;SDS011;4472;52.092;9.820;2022-12-07T05:59:41;19.23;;;8.33;;
8871;SDS011;4472;52.092;9.820;2022-12-07T06:02:28;16.60;;;8.33;;
8871;SDS011;4472;52.092;9.820;2022-12-07T06:05:15;15.67;;;7.90;;
8871;SDS011;4472;52.092;9.820;2022-12-07T06:08:03;18.07;;;8.80;;
8871;SDS011;4472;52.092;9.820;2022-12-07T06:10:51;13.30;;;7.73;;
8871;SDS011;4472;52.092;9.820;2022-12-07T06:13:59;15.07;;;8.57;;
8871;SDS011;4472;52.092;9.820;2022-12-07T06:16:45;13.20;;;8.57;;
8871;SDS011;4472;52.092;9.820;2022-12-07T06:19:32;14.33;;;8.33;;
8871;SDS011;4472;52.092;9.820;2022-12-07T06:22:20;17.87;;;8.27;;
8871;SDS011;4472;52.092;9.820;2022-12-07T06:25:08;14.83;;;8.53;;
8871;SDS011;4472;52.092;9.820;2022-12-07T06:27:57;15.13;;;8.13;;
8871;SDS011;4472;52.092;9.820;2022-12-07T06:30:44;18.20;;;8.33;;
8871;SDS011;4472;52.092;9.820;2022-12-07T06:33:31;15.63;;;7.97;;
8871;SDS011;4472;52.092;9.820;2022-12-07T06:36:18;15.00;;;8.20;;
8871;SDS011;4472;52.092;9.820;2022-12-07T06:39:06;15.00;;;8.20;;
8871;SDS011;4472;52.092;9.820;2022-12-07T06:41:54;23.47;;;8.87;;
8871;SDS011;4472;52.092;9.820;2022-12-07T06:44:43;15.20;;;9.17;;
8871;SDS011;4472;52.092;9.820;2022-12-07T06:47:30;19.67;;;9.53;;
8871;SDS011;4472;52.092;9.820;2022-12-07T06:50:17;18.67;;;9.37;;
8871;SDS011;4472;52.092;9.820;2022-12-07T06:53:05;14.97;;;8.77;;
8871;SDS011;4472;52.092;9.820;2022-12-07T06:55:52;18.93;;;9.03;;
8871;SDS011;4472;52.092;9.820;2022-12-07T06:58:39;15.23;;;8.00;;
8871;SDS011;4472;52.092;9.820;2022-12-07T07:01:28;12.47;;;7.83;;
8871;SDS011;4472;52.092;9.820;2022-12-07T07:04:16;16.20;;;7.60;;
8871;SDS011;4472;52.092;9.820;2022-12-07T07:07:03;13.17;;;7.77;;
8871;SDS011;4472;52.092;9.820;2022-12-07T07:09:50;17.73;;;7.97;;
8871;SDS011;4472;52.092;9.820;2022-12-07T07:12:37;15.50;;;7.77;;
8871;SDS011;4472;52.092;9.820;2022-12-07T07:15:25;15.33;;;7.23;;
8871;SDS011;4472;52.092;9.820;2022-12-07T07:18:13;19.60;;;8.90;;
8871;SDS011;4472;52.092;9.820;2022-12-07T07:21:00;15.03;;;8.20;;
8871;SDS011;4472;52.092;9.820;2022-12-07T07:23:48;13.73;;;8.47;;
8871;SDS011;4472;52.092;9.820;2022-12-07T07:26:35;14.67;;;8.63;;
8871;SDS011;4472;52.092;9.820;2022-12-07T07:29:22;12.80;;;7.23;;
8871;SDS011;4472;52.092;9.820;2022-12-07T07:32:09;13.27;;;7.70;;
8871;SDS011;4472;52.092;9.820;2022-12-07T07:34:58;18.47;;;7.90;;
8871;SDS011;4472;52.092;9.820;2022-12-07T07:37:46;15.70;;;7.53;;
8871;SDS011;4472;52.092;9.820;2022-12-07T07:40:33;11.47;;;6.63;;
8871;SDS011;4472;52.092;9.820;2022-12-07T07:43:21;10.00;;;7.23;;
8871;SDS011;4472;52.092;9.820;2022-12-07T07:46:08;12.13;;;7.10;;
8871;SDS011;4472;52.092;9.820;2022-12-07T07:48:55;12.70;;;6.90;;
8871;SDS011;4472;52.092;9.820;2022-12-07T07:51:44;13.30;;;7.40;;
8871;SDS011;4472;52.092;9.820;2022-12-07T07:54:31;13.40;;;7.07;;
8871;SDS011;4472;52.092;9.820;2022-12-07T07:57:18;13.53;;;7.00;;
8871;SDS011;4472;52.092;9.820;2022-12-07T08:00:06;14.17;;;7.20;;
8871;SDS011;4472;52.092;9.820;2022-12-07T08:02:55;16.93;;;7.90;;
8871;SDS011;4472;52.092;9.820;2022-12-07T08:05:43;11.63;;;6.97;;
8871;SDS011;4472;52.092;9.820;2022-12-07T08:08:32;15.20;;;8.03;;
8871;SDS011;4472;52.092;9.820;2022-12-07T08:11:19;14.70;;;7.57;;
8871;SDS011;4472;52.092;9.820;2022-12-07T08:14:06;13.03;;;7.93;;
8871;SDS011;4472;52.092;9.820;2022-12-07T08:16:53;13.97;;;7.20;;
8871;SDS011;4472;52.092;9.820;2022-12-07T08:19:41;10.17;;;7.37;;
8871;SDS011;4472;52.092;9.820;2022-12-07T08:22:28;11.93;;;7.03;;
8871;SDS011;4472;52.092;9.820;2022-12-07T08:25:17;12.33;;;7.43;;
8871;SDS011;4472;52.092;9.820;2022-12-07T08:28:04;10.43;;;6.73;;
8871;SDS011;4472;52.092;9.820;2022-12-07T08:30:52;13.27;;;7.13;;
8871;SDS011;4472;52.092;9.820;2022-12-07T08:33:44;10.43;;;7.07;;
8871;SDS011;4472;52.092;9.820;2022-12-07T08:36:32;16.23;;;6.90;;
8871;SDS011;4472;52.092;9.820;2022-12-07T08:39:19;12.10;;;6.03;;
8871;SDS011;4472;52.092;9.820;2022-12-07T08:42:08;12.87;;;5.97;;
8871;SDS011;4472;52.092;9.820;2022-12-07T08:44:55;7.60;;;5.60;;
8871;SDS011;4472;52.092;9.820;2022-12-07T08:47:44;8.83;;;5.23;;
8871;SDS011;4472;52.092;9.820;2022-12-07T08:50:35;11.17;;;5.50;;
8871;SDS011;4472;52.092;9.820;2022-12-07T08:53:23;8.77;;;5.10;;
8871;SDS011;4472;52.092;9.820;2022-12-07T08:56:10;9.57;;;5.73;;
8871;SDS011;4472;52.092;9.820;2022-12-07T08:58:59;10.63;;;5.70;;
8871;SDS011;4472;52.092;9.820;2022-12-07T09:01:46;12.57;;;5.80;;
8871;SDS011;4472;52.092;9.820;2022-12-07T09:04:34;12.97;;;6.00;;
8871;SDS011;4472;52.092;9.820;2022-12-07T09:07:21;12.93;;;6.50;;
8871;SDS011;4472;52.092;9.820;2022-12-07T09:10:09;10.43;;;5.47;;
8871;SDS011;4472;52.092;9.820;2022-12-07T09:12:56;10.23;;;6.10;;
8871;SDS011;4472;52.092;9.820;2022-12-07T09:15:47;11.83;;;6.93;;
8871;SDS011;4472;52.092;9.820;2022-12-07T09:18:34;13.00;;;6.30;;
8871;SDS011;4472;52.092;9.820;2022-12-07T09:21:21;14.43;;;5.60;;
8871;SDS011;4472;52.092;9.820;2022-12-07T09:24:09;9.90;;;5.50;;
8871;SDS011;4472;52.092;9.820;2022-12-07T09:26:56;11.17;;;5.67;;
8871;SDS011;4472;52.092;9.820;2022-12-07T09:29:43;10.20;;;5.10;;
8871;SDS011;4472;52.092;9.820;2022-12-07T09:32:32;8.23;;;4.80;;
8871;SDS011;4472;52.092;9.820;2022-12-07T09:35:19;8.70;;;4.93;;
8871;SDS011;4472;52.092;9.820;2022-12-07T09:38:06;7.97;;;4.53;;
8871;SDS011;4472;52.092;9.820;2022-12-07T09:40:53;7.10;;;4.43;;
8871;SDS011;4472;52.092;9.820;2022-12-07T09:43:41;7.17;;;4.90;;
8871;SDS011;4472;52.092;9.820;2022-12-07T09:46:29;10.33;;;4.40;;
8871;SDS011;4472;52.092;9.820;2022-12-07T09:49:23;8.83;;;5.20;;
8871;SDS011;4472;52.092;9.820;2022-12-07T09:52:17;8.20;;;4.50;;
8871;SDS011;4472;52.092;9.820;2022-12-07T09:55:09;7.27;;;4.77;;
8871;SDS011;4472;52.092;9.820;2022-12-07T09:57:58;8.37;;;4.93;;
8871;SDS011;4472;52.092;9.820;2022-12-07T10:00:45;7.53;;;4.43;;
8871;SDS011;4472;52.092;9.820;2022-12-07T10:03:33;6.90;;;4.43;;
8871;SDS011;4472;52.092;9.820;2022-12-07T10:06:23;7.47;;;4.63;;
8871;SDS011;4472;52.092;9.820;2022-12-07T10:09:11;5.43;;;3.57;;
8871;SDS011;4472;52.092;9.820;2022-12-07T10:12:00;6.00;;;3.47;;
8871;SDS011;4472;52.092;9.820;2022-12-07T10:14:53;5.27;;;3.50;;
8871;SDS011;4472;52.092;9.820;2022-12-07T10:17:46;7.30;;;3.80;;
8871;SDS011;4472;52.092;9.820;2022-12-07T10:20:35;6.77;;;3.67;;
8871;SDS011;4472;52.092;9.820;2022-12-07T10:23:24;7.40;;;3.60;;
8871;SDS011;4472;52.092;9.820;2022-12-07T10:26:25;7.03;;;3.53;;
8871;SDS011;4472;52.092;9.820;2022-12-07T10:29:16;6.03;;;3.30;;
8871;SDS011;4472;52.092;9.820;2022-12-07T10:35:20;6.83;;;3.47;;
8871;SDS011;4472;52.092;9.820;2022-12-07T10:38:16;9.67;;;3.60;;
8871;SDS011;4472;52.092;9.820;2022-12-07T10:41:05;7.00;;;3.70;;
8871;SDS011;4472;52.092;9.820;2022-12-07T10:43:55;7.23;;;3.90;;
8871;SDS011;4472;52.092;9.820;2022-12-07T10:50:22;4.27;;;3.33;;
8871;SDS011;4472;52.092;9.820;2022-12-07T10:53:39;4.23;;;3.50;;
8871;SDS011;4472;52.092;9.820;2022-12-07T10:56:39;10.53;;;3.10;;
8871;SDS011;4472;52.092;9.820;2022-12-07T10:59:47;6.27;;;3.40;;
8871;SDS011;4472;52.092;9.820;2022-12-07T11:02:55;7.60;;;2.97;;
8871;SDS011;4472;52.092;9.820;2022-12-07T11:05:56;3.27;;;2.70;;
8871;SDS011;4472;52.092;9.820;2022-12-07T11:12:12;12.57;;;3.90;;
8871;SDS011;4472;52.092;9.820;2022-12-07T11:15:10;6.57;;;3.40;;
8871;SDS011;4472;52.092;9.820;2022-12-07T11:18:08;6.53;;;3.60;;
8871;SDS011;4472;52.092;9.820;2022-12-07T11:21:04;5.37;;;3.53;;
8871;SDS011;4472;52.092;9.820;2022-12-07T11:23:56;14.33;;;4.10;;
8871;SDS011;4472;52.092;9.820;2022-12-07T11:26:57;11.90;;;3.80;;
8871;SDS011;4472;52.092;9.820;2022-12-07T11:30:03;6.47;;;3.47;;
8871;SDS011;4472;52.092;9.820;2022-12-07T11:33:03;8.47;;;3.30;;
8871;SDS011;4472;52.092;9.820;2022-12-07T11:36:02;12.43;;;3.20;;
8871;SDS011;4472;52.092;9.820;2022-12-07T11:38:55;9.20;;;3.13;;
8871;SDS011;4472;52.092;9.820;2022-12-07T11:41:45;7.87;;;3.00;;
8871;SDS011;4472;52.092;9.820;2022-12-07T11:44:36;7.77;;;2.83;;
8871;SDS011;4472;52.092;9.820;2022-12-07T11:47:35;7.50;;;2.80;;
8871;SDS011;4472;52.092;9.820;2022-12-07T11:50:30;8.60;;;2.50;;
8871;SDS011;4472;52.092;9.820;2022-12-07T11:53:22;8.43;;;2.50;;
8871;SDS011;4472;52.092;9.820;2022-12-07T11:56:15;8.20;;;2.80;;
8871;SDS011;4472;52.092;9.820;2022-12-07T11:59:06;9.87;;;2.47;;
8871;SDS011;4472;52.092;9.820;2022-12-07T12:02:00;8.77;;;2.77;;
8871;SDS011;4472;52.092;9.820;2022-12-07T12:05:02;7.17;;;2.33;;
8871;SDS011;4472;52.092;9.820;2022-12-07T12:08:00;7.53;;;2.40;;
8871;SDS011;4472;52.092;9.820;2022-12-07T12:10:59;6.63;;;2.60;;
8871;SDS011;4472;52.092;9.820;2022-12-07T12:14:00;6.10;;;2.47;;
8871;SDS011;4472;52.092;9.820;2022-12-07T12:17:15;8.00;;;2.60;;
8871;SDS011;4472;52.092;9.820;2022-12-07T12:20:27;5.77;;;2.33;;
8871;SDS011;4472;52.092;9.820;2022-12-07T12:23:18;6.90;;;2.70;;
8871;SDS011;4472;52.092;9.820;2022-12-07T12:26:13;7.17;;;2.90;;
8871;SDS011;4472;52.092;9.820;2022-12-07T12:29:05;4.30;;;2.33;;
8871;SDS011;4472;52.092;9.820;2022-12-07T12:32:07;9.07;;;2.57;;
8871;SDS011;4472;52.092;9.820;2022-12-07T12:35:02;5.80;;;2.33;;
8871;SDS011;4472;52.092;9.820;2022-12-07T12:38:26;6.83;;;2.30;;
8871;SDS011;4472;52.092;9.820;2022-12-07T12:54:27;9.67;;;2.70;;
8871;SDS011;4472;52.092;9.820;2022-12-07T12:57:17;9.07;;;2.60;;
8871;SDS011;4472;52.092;9.820;2022-12-07T13:00:15;8.67;;;2.90;;
8871;SDS011;4472;52.092;9.820;2022-12-07T13:03:04;5.20;;;2.40;;
8871;SDS011;4472;52.092;9.820;2022-12-07T13:09:20;7.17;;;2.67;;
8871;SDS011;4472;52.092;9.820;2022-12-07T13:12:13;9.17;;;2.77;;
8871;SDS011;4472;52.092;9.820;2022-12-07T13:15:03;8.73;;;2.87;;
8871;SDS011;4472;52.092;9.820;2022-12-07T13:24:28;7.00;;;2.47;;
8871;SDS011;4472;52.092;9.820;2022-12-07T13:27:20;3.03;;;2.10;;
8871;SDS011;4472;52.092;9.820;2022-12-07T13:30:11;9.30;;;2.50;;
8871;SDS011;4472;52.092;9.820;2022-12-07T13:33:03;7.60;;;3.00;;
8871;SDS011;4472;52.092;9.820;2022-12-07T13:35:53;7.43;;;2.90;;
8871;SDS011;4472;52.092;9.820;2022-12-07T13:38:47;8.07;;;2.73;;
8871;SDS011;4472;52.092;9.820;2022-12-07T13:41:36;9.23;;;2.93;;
8871;SDS011;4472;52.092;9.820;2022-12-07T13:44:33;8.30;;;2.90;;
8871;SDS011;4472;52.092;9.820;2022-12-07T13:47:22;11.10;;;3.03;;
8871;SDS011;4472;52.092;9.820;2022-12-07T13:50:22;11.97;;;3.47;;
8871;SDS011;4472;52.092;9.820;2022-12-07T13:53:11;5.07;;;2.70;;
8871;SDS011;4472;52.092;9.820;2022-12-07T13:56:00;8.40;;;3.00;;
8871;SDS011;4472;52.092;9.820;2022-12-07T13:58:58;10.43;;;2.97;;
8871;SDS011;4472;52.092;9.820;2022-12-07T14:01:46;9.50;;;2.87;;
8871;SDS011;4472;52.092;9.820;2022-12-07T14:04:35;8.30;;;2.60;;
8871;SDS011;4472;52.092;9.820;2022-12-07T14:07:24;9.13;;;3.10;;
8871;SDS011;4472;52.092;9.820;2022-12-07T14:10:22;8.77;;;3.20;;
8871;SDS011;4472;52.092;9.820;2022-12-07T14:13:22;8.77;;;2.80;;
8871;SDS011;4472;52.092;9.820;2022-12-07T14:16:21;7.67;;;3.13;;
8871;SDS011;4472;52.092;9.820;2022-12-07T14:22:31;12.63;;;2.73;;
8871;SDS011;4472;52.092;9.820;2022-12-07T14:25:20;7.67;;;2.40;;
8871;SDS011;4472;52.092;9.820;2022-12-07T14:28:09;9.93;;;2.20;;
8871;SDS011;4472;52.092;9.820;2022-12-07T14:31:13;5.53;;;3.40;;
8871;SDS011;4472;52.092;9.820;2022-12-07T14:34:02;8.50;;;2.50;;
8871;SDS011;4472;52.092;9.820;2022-12-07T14:36:49;6.00;;;2.80;;
8871;SDS011;4472;52.092;9.820;2022-12-07T14:39:37;10.17;;;3.00;;
8871;SDS011;4472;52.092;9.820;2022-12-07T14:42:26;7.00;;;2.40;;
8871;SDS011;4472;52.092;9.820;2022-12-07T14:45:15;8.40;;;2.50;;
8871;SDS011;4472;52.092;9.820;2022-12-07T14:48:04;8.73;;;2.33;;
8871;SDS011;4472;52.092;9.820;2022-12-07T14:50:52;8.43;;;2.77;;
8871;SDS011;4472;52.092;9.820;2022-12-07T14:53:41;4.73;;;2.63;;
8871;SDS011;4472;52.092;9.820;2022-12-07T14:56:32;8.87;;;3.03;;
8871;SDS011;4472;52.092;9.820;2022-12-07T14:59:19;7.00;;;2.37;;
8871;SDS011;4472;52.092;9.820;2022-12-07T15:02:06;6.10;;;2.20;;
8871;SDS011;4472;52.092;9.820;2022-12-07T15:04:55;9.50;;;3.47;;
8871;SDS011;4472;52.092;9.820;2022-12-07T15:07:44;8.03;;;2.80;;
8871;SDS011;4472;52.092;9.820;2022-12-07T15:10:33;7.73;;;2.30;;
8871;SDS011;4472;52.092;9.820;2022-12-07T15:13:23;3.97;;;2.20;;
8871;SDS011;4472;52.092;9.820;2022-12-07T15:16:28;9.13;;;2.50;;
8871;SDS011;4472;52.092;9.820;2022-12-07T15:19:17;7.47;;;2.50;;
8871;SDS011;4472;52.092;9.820;2022-12-07T15:22:07;6.93;;;2.43;;
8871;SDS011;4472;52.092;9.820;2022-12-07T15:24:57;7.50;;;2.40;;
8871;SDS011;4472;52.092;9.820;2022-12-07T15:27:44;4.33;;;2.10;;
8871;SDS011;4472;52.092;9.820;2022-12-07T15:30:36;8.60;;;2.23;;
8871;SDS011;4472;52.092;9.820;2022-12-07T15:33:23;8.87;;;2.40;;
8871;SDS011;4472;52.092;9.820;2022-12-07T15:36:14;7.30;;;2.37;;
8871;SDS011;4472;52.092;9.820;2022-12-07T15:39:05;5.10;;;2.27;;
8871;SDS011;4472;52.092;9.820;2022-12-07T15:41:54;5.23;;;2.37;;
8871;SDS011;4472;52.092;9.820;2022-12-07T15:44:41;7.10;;;2.83;;
8871;SDS011;4472;52.092;9.820;2022-12-07T15:47:45;10.40;;;2.43;;
8871;SDS011;4472;52.092;9.820;2022-12-07T15:50:33;5.70;;;2.23;;
8871;SDS011;4472;52.092;9.820;2022-12-07T15:53:21;7.07;;;2.50;;
8871;SDS011;4472;52.092;9.820;2022-12-07T15:56:08;10.33;;;2.73;;
8871;SDS011;4472;52.092;9.820;2022-12-07T15:58:57;3.13;;;2.10;;
8871;SDS011;4472;52.092;9.820;2022-12-07T16:01:44;7.93;;;2.50;;
8871;SDS011;4472;52.092;9.820;2022-12-07T16:04:31;8.17;;;2.73;;
8871;SDS011;4472;52.092;9.820;2022-12-07T16:07:18;8.23;;;3.33;;
8871;SDS011;4472;52.092;9.820;2022-12-07T16:10:06;10.50;;;3.70;;
8871;SDS011;4472;52.092;9.820;2022-12-07T16:12:54;10.50;;;3.70;;
8871;SDS011;4472;52.092;9.820;2022-12-07T16:15:42;8.10;;;3.40;;
8871;SDS011;4472;52.092;9.820;2022-12-07T16:18:30;8.70;;;4.20;;
8871;SDS011;4472;52.092;9.820;2022-12-07T16:21:17;5.47;;;3.50;;
8871;SDS011;4472;52.092;9.820;2022-12-07T16:24:05;9.70;;;4.30;;
8871;SDS011;4472;52.092;9.820;2022-12-07T16:26:53;10.27;;;4.03;;
8871;SDS011;4472;52.092;9.820;2022-12-07T16:29:40;9.33;;;3.70;;
8871;SDS011;4472;52.092;9.820;2022-12-07T16:32:28;11.67;;;4.07;;
8871;SDS011;4472;52.092;9.820;2022-12-07T16:35:16;13.63;;;4.20;;
8871;SDS011;4472;52.092;9.820;2022-12-07T16:38:03;11.20;;;3.90;;
8871;SDS011;4472;52.092;9.820;2022-12-07T16:40:51;8.40;;;4.00;;
8871;SDS011;4472;52.092;9.820;2022-12-07T16:43:38;9.03;;;3.97;;
8871;SDS011;4472;52.092;9.820;2022-12-07T16:46:27;9.70;;;4.80;;
8871;SDS011;4472;52.092;9.820;2022-12-07T16:49:15;11.57;;;4.67;;
8871;SDS011;4472;52.092;9.820;2022-12-07T16:52:04;9.60;;;4.50;;
8871;SDS011;4472;52.092;9.820;2022-12-07T16:54:51;11.90;;;4.47;;
8871;SDS011;4472;52.092;9.820;2022-12-07T16:57:38;12.20;;;6.63;;
8871;SDS011;4472;52.092;9.820;2022-12-07T17:00:25;10.67;;;6.13;;
8871;SDS011;4472;52.092;9.820;2022-12-07T17:03:12;14.67;;;6.50;;
8871;SDS011;4472;52.092;9.820;2022-12-07T17:06:03;15.53;;;6.27;;
8871;SDS011;4472;52.092;9.820;2022-12-07T17:08:57;10.73;;;4.80;;
8871;SDS011;4472;52.092;9.820;2022-12-07T17:11:44;8.57;;;4.40;;
8871;SDS011;4472;52.092;9.820;2022-12-07T17:14:32;11.70;;;4.40;;
8871;SDS011;4472;52.092;9.820;2022-12-07T17:17:36;10.60;;;5.23;;
8871;SDS011;4472;52.092;9.820;2022-12-07T17:20:24;13.23;;;4.40;;
8871;SDS011;4472;52.092;9.820;2022-12-07T17:23:14;9.93;;;4.93;;
8871;SDS011;4472;52.092;9.820;2022-12-07T17:26:05;10.93;;;4.77;;
8871;SDS011;4472;52.092;9.820;2022-12-07T17:28:56;8.60;;;4.77;;
8871;SDS011;4472;52.092;9.820;2022-12-07T17:31:44;13.13;;;4.47;;
8871;SDS011;4472;52.092;9.820;2022-12-07T17:34:31;11.50;;;4.33;;
8871;SDS011;4472;52.092;9.820;2022-12-07T17:37:18;10.57;;;3.63;;
8871;SDS011;4472;52.092;9.820;2022-12-07T17:40:07;9.87;;;4.07;;
8871;SDS011;4472;52.092;9.820;2022-12-07T17:42:55;15.93;;;5.20;;
8871;SDS011;4472;52.092;9.820;2022-12-07T17:45:42;11.13;;;4.07;;
8871;SDS011;4472;52.092;9.820;2022-12-07T17:48:29;12.70;;;4.40;;
8871;SDS011;4472;52.092;9.820;2022-12-07T17:51:16;10.87;;;4.83;;
8871;SDS011;4472;52.092;9.820;2022-12-07T17:54:21;11.93;;;4.20;;
8871;SDS011;4472;52.092;9.820;2022-12-07T17:57:10;9.13;;;4.70;;
8871;SDS011;4472;52.092;9.820;2022-12-07T17:59:57;14.33;;;5.23;;
8871;SDS011;4472;52.092;9.820;2022-12-07T18:02:44;10.13;;;4.63;;
8871;SDS011;4472;52.092;9.820;2022-12-07T18:05:32;6.43;;;4.20;;
8871;SDS011;4472;52.092;9.820;2022-12-07T18:08:19;8.57;;;4.40;;